createdAt,value
2023-05-23T00:01:01.311Z,9.40
2023-05-23T00:02:31.377Z,9.10
2023-05-23T00:04:01.743Z,9.00
2023-05-23T00:05:32.582Z,9.50
2023-05-23T00:07:00.776Z,9.40
2023-05-23T00:08:29.936Z,9.70
2023-05-23T00:10:30.629Z,10.10
2023-05-23T00:13:18.438Z,10.40
2023-05-23T00:14:49.413Z,10.00
2023-05-23T00:16:37.416Z,10.60
2023-05-23T00:22:19.967Z,11.80
2023-05-23T00:24:20.573Z,11.80
2023-05-23T00:25:48.801Z,11.30
2023-05-23T00:28:06.478Z,14.30
2023-05-23T00:34:35.981Z,14.20
2023-05-23T00:36:34.195Z,14.20
2023-05-23T00:40:29.828Z,17.20
2023-05-23T00:44:28.100Z,18.10
2023-05-23T00:46:26.010Z,19.50
2023-05-23T00:54:40.408Z,19.10
2023-05-23T01:03:06.514Z,18.20
2023-05-23T01:21:51.146Z,19.20
2023-05-23T01:26:13.583Z,18.30
2023-05-23T01:31:21.502Z,18.60
2023-05-23T01:32:52.560Z,18.30
2023-05-23T01:35:09.512Z,17.40
2023-05-23T01:37:08.686Z,18.30
2023-05-23T01:40:27.368Z,17.50
2023-05-23T01:44:08.645Z,16.60
2023-05-23T01:51:40.581Z,14.50
2023-05-23T01:53:32.239Z,13.80
2023-05-23T01:55:31.253Z,15.60
2023-05-23T01:59:22.982Z,14.60
2023-05-23T02:00:50.108Z,14.60
2023-05-23T02:05:10.051Z,16.20
2023-05-23T02:08:02.587Z,15.10
2023-05-23T02:12:14.984Z,15.30
2023-05-23T02:15:24.923Z,16.90
2023-05-23T02:24:09.429Z,14.70
2023-05-23T02:25:39.942Z,15.90
2023-05-23T02:34:00.379Z,12.40
2023-05-23T02:38:09.834Z,12.10
2023-05-23T02:39:59.164Z,12.70
2023-05-23T02:41:57.413Z,11.60
2023-05-23T02:43:26.480Z,11.10
2023-05-23T02:47:02.703Z,11.60
2023-05-23T02:49:21.684Z,12.20
2023-05-23T02:50:50.698Z,12.10
2023-05-23T02:53:40.881Z,12.40
2023-05-23T02:55:11.053Z,14.30
2023-05-23T02:57:42.272Z,15.10
2023-05-23T02:59:41.907Z,15.00
2023-05-23T03:03:28.393Z,14.80
2023-05-23T03:05:47.773Z,15.40
2023-05-23T03:09:21.014Z,16.80
2023-05-23T03:12:08.176Z,17.10
2023-05-23T03:14:35.218Z,17.00
2023-05-23T03:21:39.377Z,18.00
2023-05-23T03:25:04.499Z,17.00
2023-05-23T03:31:39.501Z,18.10
2023-05-23T03:33:40.259Z,17.60
2023-05-23T03:36:57.441Z,16.20
2023-05-23T03:39:24.890Z,17.20
2023-05-23T03:44:32.027Z,17.10
2023-05-23T03:46:21.726Z,16.50
2023-05-23T03:49:48.216Z,15.20
2023-05-23T03:57:06.037Z,13.40
2023-05-23T04:00:56.174Z,12.70
2023-05-23T04:04:13.734Z,13.70
2023-05-23T04:05:41.669Z,14.00
2023-05-23T04:06:41.536Z,13.80
2023-05-23T04:07:41.508Z,13.40
2023-05-23T04:09:42.335Z,12.30
2023-05-23T04:16:16.847Z,12.30
2023-05-23T04:20:05.541Z,13.30
2023-05-23T04:38:37.000Z,13.30
2023-05-23T04:41:39.808Z,13.40
2023-05-23T04:47:44.490Z,14.90
2023-05-23T04:53:13.010Z,13.00
2023-05-23T04:56:04.868Z,13.50
2023-05-23T05:02:47.426Z,14.30
2023-05-23T05:05:19.561Z,13.90
2023-05-23T05:08:51.943Z,12.50
2023-05-23T05:10:20.921Z,12.80
2023-05-23T05:11:50.975Z,12.10
2023-05-23T05:15:59.878Z,12.40
2023-05-23T05:18:39.463Z,12.20
2023-05-23T05:26:47.132Z,11.20
2023-05-23T05:30:27.806Z,11.30
2023-05-23T05:33:54.048Z,10.60
2023-05-23T05:36:13.808Z,9.90
2023-05-23T05:37:42.747Z,10.40
2023-05-23T05:39:33.383Z,11.40
2023-05-23T05:42:50.556Z,10.80
2023-05-23T05:44:51.572Z,12.80
2023-05-23T05:46:23.216Z,12.50
2023-05-23T05:47:50.725Z,11.70
2023-05-23T05:49:48.268Z,10.10
2023-05-23T05:51:17.817Z,10.70
2023-05-23T05:53:15.541Z,9.90
2023-05-23T05:55:45.363Z,9.40
2023-05-23T05:58:13.824Z,10.00
2023-05-23T05:59:43.775Z,9.70
2023-05-23T06:01:13.682Z,9.90
2023-05-23T06:04:50.232Z,8.30
2023-05-23T06:06:20.025Z,9.50
2023-05-23T06:07:20.006Z,8.70
2023-05-23T06:08:20.021Z,8.80
2023-05-23T06:11:46.729Z,9.10
2023-05-23T06:13:35.402Z,8.50
2023-05-23T06:15:05.254Z,8.80
2023-05-23T06:16:33.172Z,8.20
2023-05-23T06:18:05.144Z,8.50
2023-05-23T06:20:54.939Z,7.90
2023-05-23T06:23:56.741Z,7.30
2023-05-23T06:29:26.621Z,6.20
2023-05-23T06:32:25.882Z,6.50
2023-05-23T06:34:52.331Z,5.60
2023-05-23T06:36:54.863Z,5.50
2023-05-23T06:41:17.578Z,5.40
2023-05-23T06:45:54.505Z,5.90
2023-05-23T06:48:46.437Z,5.40
2023-05-23T06:52:07.825Z,5.70
2023-05-23T06:55:31.252Z,7.00
2023-05-23T06:57:30.553Z,7.20
2023-05-23T07:00:50.837Z,8.30
2023-05-23T07:02:40.084Z,8.00
2023-05-23T07:05:48.495Z,9.30
2023-05-23T07:08:39.763Z,8.00
2023-05-23T07:09:58.649Z,8.70
2023-05-23T07:10:37.758Z,8.50
2023-05-23T07:11:37.965Z,8.70
2023-05-23T07:13:37.584Z,8.20
2023-05-23T07:15:09.341Z,9.00
2023-05-23T07:20:05.953Z,9.30
2023-05-23T07:25:34.049Z,9.30
2023-05-23T07:27:03.217Z,8.30
2023-05-23T07:28:02.450Z,8.60
2023-05-23T07:29:02.466Z,8.40
2023-05-23T07:30:51.203Z,8.50
2023-05-23T07:32:22.066Z,8.30
2023-05-23T07:33:49.241Z,8.40
2023-05-23T07:35:19.401Z,7.70
2023-05-23T07:36:49.461Z,7.70
2023-05-23T07:38:21.607Z,8.30
2023-05-23T07:41:22.554Z,7.70
2023-05-23T07:43:19.408Z,8.80
2023-05-23T07:49:25.847Z,8.30
2023-05-23T07:50:54.816Z,8.20
2023-05-23T07:52:46.387Z,8.70
2023-05-23T07:56:32.490Z,7.90
2023-05-23T07:59:41.809Z,7.90
2023-05-23T08:02:31.594Z,8.20
2023-05-23T08:06:18.350Z,10.20
2023-05-23T08:07:51.241Z,8.00
2023-05-23T08:11:35.579Z,7.50
2023-05-23T08:14:49.983Z,7.50
2023-05-23T08:18:57.328Z,6.80
2023-05-23T08:20:55.338Z,6.60
2023-05-23T08:27:04.791Z,6.20
2023-05-23T08:28:33.753Z,6.40
2023-05-23T08:30:24.461Z,6.20
2023-05-23T08:34:02.688Z,6.80
2023-05-23T08:38:01.875Z,5.90
2023-05-23T08:40:20.019Z,6.00
2023-05-23T08:44:54.013Z,6.30
2023-05-23T08:52:18.419Z,5.90
2023-05-23T08:56:39.248Z,4.60
2023-05-23T08:58:26.035Z,5.00
2023-05-23T09:04:04.450Z,4.90
2023-05-23T09:06:02.768Z,5.50
2023-05-23T09:08:42.398Z,6.30
2023-05-23T09:10:14.042Z,5.30
2023-05-23T09:11:44.130Z,5.90
2023-05-23T09:16:00.089Z,5.50
2023-05-23T09:17:32.862Z,5.40
2023-05-23T09:19:03.136Z,5.60
2023-05-23T09:20:33.069Z,4.50
2023-05-23T09:24:01.775Z,4.80
2023-05-23T09:31:56.520Z,5.00
2023-05-23T09:34:32.015Z,4.70
2023-05-23T09:36:21.049Z,4.40
2023-05-23T09:37:50.130Z,5.30
2023-05-23T09:42:31.549Z,5.70
2023-05-23T09:44:47.673Z,4.50
2023-05-23T09:49:05.267Z,4.20
2023-05-23T09:52:57.858Z,3.90
2023-05-23T09:54:56.141Z,4.70
2023-05-23T09:56:23.435Z,5.00
2023-05-23T09:57:55.856Z,4.50
2023-05-23T10:04:52.630Z,4.90
2023-05-23T10:06:23.572Z,4.60
2023-05-23T10:09:12.421Z,4.60
2023-05-23T10:11:11.469Z,5.30
2023-05-23T10:17:14.429Z,3.90
2023-05-23T10:19:04.254Z,4.40
2023-05-23T10:23:07.522Z,4.60
2023-05-23T10:32:14.993Z,4.00
2023-05-23T10:36:13.849Z,4.50
2023-05-23T10:45:53.129Z,3.80
2023-05-23T10:47:22.172Z,4.80
2023-05-23T10:54:28.797Z,6.10
2023-05-23T10:58:47.814Z,4.10
2023-05-23T11:00:14.926Z,4.40
2023-05-23T11:03:35.006Z,4.10
2023-05-23T11:06:04.490Z,4.30
2023-05-23T11:07:34.479Z,4.40
2023-05-23T11:09:06.303Z,3.80
2023-05-23T11:13:40.526Z,4.20
2023-05-23T11:18:10.130Z,4.00
2023-05-23T11:21:10.482Z,7.00
2023-05-23T11:22:10.494Z,6.50
2023-05-23T11:23:10.428Z,5.50
2023-05-23T11:24:41.329Z,4.30
2023-05-23T11:32:27.532Z,4.60
2023-05-23T11:34:58.264Z,4.00
2023-05-23T11:43:41.495Z,3.30
2023-05-23T11:46:49.275Z,4.00
2023-05-23T11:49:18.045Z,4.30
2023-05-23T11:52:07.323Z,3.90
2023-05-23T11:55:43.322Z,4.40
2023-05-23T11:57:43.935Z,4.00
2023-05-23T12:00:05.414Z,4.10
2023-05-23T12:05:26.936Z,4.40
2023-05-23T12:10:15.681Z,2.90
2023-05-23T12:11:45.563Z,3.40
2023-05-23T12:14:50.674Z,3.60
2023-05-23T12:17:44.028Z,3.60
2023-05-23T12:26:08.064Z,3.60
2023-05-23T12:27:57.827Z,3.70
2023-05-23T12:30:45.246Z,3.70
2023-05-23T12:33:14.757Z,3.50
2023-05-23T12:37:19.802Z,3.60
2023-05-23T12:39:34.970Z,3.50
2023-05-23T12:42:24.456Z,2.80
2023-05-23T12:43:53.433Z,2.60
2023-05-23T12:46:50.671Z,2.80
2023-05-23T12:49:09.211Z,4.00
2023-05-23T12:50:57.720Z,3.10
2023-05-23T12:52:27.648Z,3.10
2023-05-23T12:54:26.696Z,3.40
2023-05-23T12:56:26.302Z,3.40
2023-05-23T13:01:01.449Z,3.10
2023-05-23T13:04:08.003Z,4.20
2023-05-23T13:11:07.157Z,4.10
2023-05-23T13:16:01.985Z,3.00
2023-05-23T13:24:36.585Z,3.20
2023-05-23T13:26:55.451Z,3.60
2023-05-23T13:30:13.975Z,3.30
2023-05-23T13:32:41.858Z,3.30
2023-05-23T13:36:30.277Z,3.70
2023-05-23T13:38:26.985Z,2.80
2023-05-23T13:41:48.203Z,3.40
2023-05-23T13:47:30.855Z,3.50
2023-05-23T13:49:00.849Z,3.10
2023-05-23T13:51:20.956Z,3.00
2023-05-23T13:53:18.229Z,3.60
2023-05-23T13:58:07.755Z,5.40
2023-05-23T14:06:58.525Z,3.50
2023-05-23T14:09:19.434Z,4.00
2023-05-23T14:13:37.452Z,4.20
2023-05-23T14:17:30.567Z,3.50
2023-05-23T14:20:29.010Z,3.50
2023-05-23T14:23:27.109Z,3.50
2023-05-23T14:25:45.791Z,3.50
2023-05-23T14:29:02.596Z,4.10
2023-05-23T14:30:33.668Z,3.50
2023-05-23T14:32:52.800Z,3.40
2023-05-23T14:36:20.380Z,3.40
2023-05-23T14:39:09.074Z,3.70
2023-05-23T14:41:08.248Z,3.70
2023-05-23T14:42:36.202Z,3.40
2023-05-23T14:44:53.851Z,3.00
2023-05-23T14:47:21.920Z,2.90
2023-05-23T14:49:12.596Z,3.00
2023-05-23T14:50:40.756Z,3.60
2023-05-23T14:52:41.084Z,3.10
2023-05-23T14:55:59.752Z,3.70
2023-05-23T14:57:59.848Z,2.80
2023-05-23T14:59:29.757Z,4.00
2023-05-23T15:02:28.811Z,4.20
2023-05-23T15:04:51.940Z,2.60
2023-05-23T15:09:41.412Z,3.50
2023-05-23T15:11:39.932Z,3.30
2023-05-23T15:13:10.780Z,3.30
2023-05-23T15:17:33.376Z,2.90
2023-05-23T15:19:35.568Z,2.30
2023-05-23T15:21:32.873Z,3.60
2023-05-23T15:24:41.507Z,2.80
2023-05-23T15:27:18.897Z,2.50
2023-05-23T15:32:37.200Z,2.70
2023-05-23T15:35:55.395Z,2.80
2023-05-23T15:37:24.365Z,3.50
2023-05-23T15:39:59.560Z,3.00
2023-05-23T15:41:47.333Z,2.90
2023-05-23T15:46:07.420Z,3.60
2023-05-23T15:49:47.350Z,3.40
2023-05-23T15:51:48.043Z,3.50
2023-05-23T15:53:15.989Z,3.20
2023-05-23T15:57:52.409Z,3.20
2023-05-23T16:01:01.527Z,2.50
2023-05-23T16:04:19.267Z,3.00
2023-05-23T16:05:51.079Z,3.10
2023-05-23T16:12:03.080Z,2.80
2023-05-23T16:13:32.938Z,2.60
2023-05-23T16:15:32.802Z,3.50
2023-05-23T16:17:50.460Z,2.70
2023-05-23T16:19:19.459Z,2.60
2023-05-23T16:20:49.396Z,3.30
2023-05-23T16:22:22.596Z,3.00
2023-05-23T16:24:54.060Z,2.80
2023-05-23T16:27:56.272Z,2.80
2023-05-23T16:29:26.155Z,2.50
2023-05-23T16:31:14.884Z,2.40
2023-05-23T16:33:14.906Z,2.90
2023-05-23T16:39:09.350Z,2.70
2023-05-23T16:41:09.319Z,2.70
2023-05-23T16:43:58.914Z,3.00
2023-05-23T16:45:57.823Z,2.70
2023-05-23T16:47:58.402Z,3.70
2023-05-23T16:51:55.802Z,3.20
2023-05-23T16:53:25.783Z,2.80
2023-05-23T16:54:54.693Z,3.00
2023-05-23T16:58:52.774Z,2.50
2023-05-23T17:00:51.110Z,3.00
2023-05-23T17:02:49.943Z,3.20
2023-05-23T17:04:49.874Z,3.80
2023-05-23T17:06:21.756Z,2.70
2023-05-23T17:07:52.940Z,2.70
2023-05-23T17:13:02.222Z,2.80
2023-05-23T17:16:27.611Z,3.40
2023-05-23T17:17:59.427Z,3.30
2023-05-23T17:20:48.473Z,2.50
2023-05-23T17:22:48.190Z,2.90
2023-05-23T17:28:27.678Z,3.60
2023-05-23T17:32:14.591Z,3.20
2023-05-23T17:34:45.308Z,2.40
2023-05-23T17:36:13.915Z,2.70
2023-05-23T17:38:14.658Z,2.90
2023-05-23T17:43:41.885Z,2.90
2023-05-23T17:49:44.134Z,2.50
2023-05-23T17:52:16.043Z,2.80
2023-05-23T17:55:57.025Z,3.00
2023-05-23T17:58:08.952Z,2.70
2023-05-23T18:00:07.983Z,3.00
2023-05-23T18:01:37.091Z,2.70
2023-05-23T18:04:05.604Z,2.90
2023-05-23T18:05:58.610Z,2.90
2023-05-23T18:08:40.458Z,2.60
2023-05-23T18:11:05.719Z,2.90
2023-05-23T18:13:06.731Z,3.10
2023-05-23T18:14:34.784Z,2.90
2023-05-23T18:17:30.038Z,3.20
2023-05-23T18:19:28.005Z,2.50
2023-05-23T18:22:28.187Z,3.30
2023-05-23T18:25:38.217Z,3.10
2023-05-23T18:27:07.816Z,2.60
2023-05-23T18:32:10.539Z,2.40
2023-05-23T18:33:42.851Z,2.70
2023-05-23T18:35:58.658Z,2.50
2023-05-23T18:40:43.930Z,3.20
2023-05-23T18:42:13.660Z,3.10
2023-05-23T18:43:45.073Z,3.30
2023-05-23T18:46:43.841Z,3.00
2023-05-23T18:49:44.969Z,2.80
2023-05-23T18:55:03.912Z,2.60
2023-05-23T18:57:50.645Z,2.70
2023-05-23T18:59:53.608Z,2.50
2023-05-23T19:07:51.501Z,3.60
2023-05-23T19:11:51.192Z,2.80
2023-05-23T19:14:47.024Z,2.30
2023-05-23T19:17:15.146Z,2.80
2023-05-23T19:18:44.967Z,2.40
2023-05-23T19:20:19.559Z,3.10
2023-05-23T19:24:25.170Z,2.70
2023-05-23T19:26:28.325Z,3.10
2023-05-23T19:28:28.007Z,3.10
2023-05-23T19:37:52.924Z,2.30
2023-05-23T19:40:25.211Z,3.00
2023-05-23T19:41:53.332Z,3.30
2023-05-23T19:44:43.952Z,3.00
2023-05-23T19:47:36.735Z,2.80
2023-05-23T19:50:37.437Z,2.90
2023-05-23T19:53:24.501Z,3.30
2023-05-23T19:54:52.084Z,2.70
2023-05-23T19:56:22.467Z,2.50
2023-05-23T19:57:54.525Z,3.60
2023-05-23T20:01:12.675Z,2.90
2023-05-23T20:05:23.728Z,2.90
2023-05-23T20:06:23.640Z,3.10
2023-05-23T20:07:23.619Z,3.40
2023-05-23T20:08:23.533Z,3.50
2023-05-23T20:13:53.350Z,3.10
2023-05-23T20:18:03.217Z,3.20
2023-05-23T20:19:32.226Z,2.60
2023-05-23T20:22:47.477Z,2.90
2023-05-23T20:26:06.363Z,2.70
2023-05-23T20:28:05.345Z,2.90
2023-05-23T20:29:33.934Z,2.90
2023-05-23T20:32:57.630Z,2.80
2023-05-23T20:35:31.035Z,3.30
2023-05-23T20:39:11.048Z,3.70
2023-05-23T20:41:43.973Z,4.00
2023-05-23T20:43:46.778Z,2.70
2023-05-23T20:45:37.763Z,3.00
2023-05-23T20:47:59.459Z,3.40
2023-05-23T20:49:30.898Z,3.50
2023-05-23T20:50:59.894Z,2.70
2023-05-23T20:52:49.073Z,3.00
2023-05-23T20:54:50.112Z,3.40
2023-05-23T21:00:53.708Z,3.30
2023-05-23T21:02:24.557Z,3.50
2023-05-23T21:04:26.471Z,3.40
2023-05-23T21:09:59.291Z,3.70
2023-05-23T21:15:00.370Z,3.60
2023-05-23T21:17:53.553Z,3.30
2023-05-23T21:21:35.970Z,3.20
2023-05-23T21:24:58.610Z,3.80
2023-05-23T21:29:25.159Z,2.90
2023-05-23T21:31:17.189Z,2.90
2023-05-23T21:34:24.169Z,3.60
2023-05-23T21:35:52.846Z,4.20
2023-05-23T21:37:52.700Z,4.50
2023-05-23T21:40:46.341Z,3.40
2023-05-23T21:43:48.391Z,3.50
2023-05-23T21:45:20.739Z,3.60
2023-05-23T21:49:39.317Z,3.80
2023-05-23T21:51:29.453Z,3.90
2023-05-23T21:54:05.627Z,4.20
2023-05-23T21:56:19.520Z,3.30
2023-05-23T21:57:53.297Z,3.20
2023-05-23T22:04:24.050Z,3.60
2023-05-23T22:10:26.390Z,3.70
2023-05-23T22:14:04.136Z,4.10
2023-05-23T22:15:55.944Z,3.20
2023-05-23T22:20:52.139Z,4.00
2023-05-23T22:24:05.288Z,3.50
2023-05-23T22:28:29.501Z,3.60
2023-05-23T22:33:07.960Z,4.00
2023-05-23T22:34:40.895Z,4.00
2023-05-23T22:36:27.547Z,3.90
2023-05-23T22:38:26.283Z,4.30
2023-05-23T22:40:28.179Z,3.80
2023-05-23T22:42:19.342Z,3.90
2023-05-23T22:51:14.841Z,4.20
2023-05-23T22:56:06.774Z,3.80
2023-05-23T22:58:52.130Z,3.40
2023-05-23T23:00:46.621Z,4.30
2023-05-23T23:02:14.684Z,4.20
2023-05-23T23:04:16.345Z,3.70
2023-05-23T23:05:44.360Z,3.40
2023-05-23T23:07:16.021Z,3.80
2023-05-23T23:08:44.125Z,4.50
2023-05-23T23:10:13.376Z,4.60
2023-05-23T23:14:53.914Z,4.30
2023-05-23T23:16:22.310Z,3.80
2023-05-23T23:20:12.306Z,4.30
2023-05-23T23:21:41.974Z,4.90
2023-05-23T23:26:21.436Z,4.50
2023-05-23T23:28:40.212Z,5.60
2023-05-23T23:35:01.553Z,5.00
2023-05-23T23:36:59.007Z,5.10
2023-05-23T23:40:01.143Z,5.00
2023-05-23T23:41:01.103Z,4.60
2023-05-23T23:42:02.989Z,4.60
2023-05-23T23:44:21.291Z,5.60
2023-05-23T23:51:06.445Z,5.00
2023-05-23T23:53:02.683Z,5.20
2023-05-23T23:56:00.150Z,4.60
2023-05-23T23:57:28.770Z,5.20
